Huvudsida
METAR-TAF:

METAR-TAF

Flygplatser :

Båtsfjords flygplats

Båtsfjords, Norge

latitud: 70-38N, longitud: 029-44E, höjd: 10 m

Aktuellt väderrapport

Denna rapport gjordes för 54 minuter sedan, klockan 19:50 UTC
Vind 9 kt från väst/nordväst
Temperatur 16°C
Fuktighet 88%
Tryck 1000 hPa
Sikt 10 km eller mer
Få moln på en höjd av 1200 ft
Spridda moln på en höjd av 1700 ft
Brutna moln på en höjd av 6500 ft
skurar i närheten

METAR: ENBS 171950Z 29009KT 9999 VCSH FEW012 SCT017 BKN065 16/14 Q1000

Tid: 22:44 (20:44 UTC)


TAF: saknas

Aktuella väderrapporter och prognoser från 4000 flygplatser (METAR- och TAF-rapporter).

De tillgängliga stationerna syns som gula och röda prickar på kartan.

För musen över prickarna för att se namnen på stationerna.

Klicka sedan för att få väderrapporter och prognoser.

För att ändra kartan: Klicka på de gröna knapparna med ett svart kors på för att zooma in; den gröna knappen med ett streck på för att zooma ut; eller på de gröna pilarna för angränsande kartor.


METAR-TAF: